sensor_id;sensor_type;location;lat;lon;timestamp;temperature;humidity
16273;DHT22;8244;50.044;9.006;2023-05-21T00:00:00;14.90;99.90
16273;DHT22;8244;50.044;9.006;2023-05-21T00:05:02;14.90;99.90
16273;DHT22;8244;50.044;9.006;2023-05-21T00:10:06;14.80;99.90
16273;DHT22;8244;50.044;9.006;2023-05-21T00:15:08;14.80;99.90
16273;DHT22;8244;50.044;9.006;2023-05-21T00:20:11;14.80;99.90
16273;DHT22;8244;50.044;9.006;2023-05-21T00:25:14;14.70;99.90
16273;DHT22;8244;50.044;9.006;2023-05-21T00:30:15;14.80;99.90
16273;DHT22;8244;50.044;9.006;2023-05-21T00:35:17;14.70;99.90
16273;DHT22;8244;50.044;9.006;2023-05-21T00:40:20;14.70;99.90
16273;DHT22;8244;50.044;9.006;2023-05-21T00:45:22;14.70;99.90
16273;DHT22;8244;50.044;9.006;2023-05-21T00:50:25;14.70;99.90
16273;DHT22;8244;50.044;9.006;2023-05-21T00:55:28;14.70;99.90
16273;DHT22;8244;50.044;9.006;2023-05-21T01:00:32;14.70;99.90
16273;DHT22;8244;50.044;9.006;2023-05-21T01:05:34;14.70;99.90
16273;DHT22;8244;50.044;9.006;2023-05-21T01:10:37;14.60;99.90
16273;DHT22;8244;50.044;9.006;2023-05-21T01:15:39;14.60;99.90
16273;DHT22;8244;50.044;9.006;2023-05-21T01:20:41;14.60;99.90
16273;DHT22;8244;50.044;9.006;2023-05-21T01:25:48;14.60;99.90
16273;DHT22;8244;50.044;9.006;2023-05-21T01:30:50;14.60;99.90
16273;DHT22;8244;50.044;9.006;2023-05-21T01:35:57;14.60;99.90
16273;DHT22;8244;50.044;9.006;2023-05-21T01:41:08;14.60;99.90
16273;DHT22;8244;50.044;9.006;2023-05-21T01:46:14;14.60;99.90
16273;DHT22;8244;50.044;9.006;2023-05-21T01:51:18;14.60;99.90
16273;DHT22;8244;50.044;9.006;2023-05-21T01:56:21;14.60;99.90
16273;DHT22;8244;50.044;9.006;2023-05-21T02:01:25;14.60;99.90
16273;DHT22;8244;50.044;9.006;2023-05-21T02:06:29;14.60;99.90
16273;DHT22;8244;50.044;9.006;2023-05-21T02:11:33;14.60;99.90
16273;DHT22;8244;50.044;9.006;2023-05-21T02:16:35;14.60;99.90
16273;DHT22;8244;50.044;9.006;2023-05-21T02:21:37;14.60;99.90
16273;DHT22;8244;50.044;9.006;2023-05-21T02:26:40;14.60;99.90
16273;DHT22;8244;50.044;9.006;2023-05-21T02:31:42;14.50;99.90
16273;DHT22;8244;50.044;9.006;2023-05-21T02:36:44;14.50;99.90
16273;DHT22;8244;50.044;9.006;2023-05-21T02:41:49;14.60;99.90
16273;DHT22;8244;50.044;9.006;2023-05-21T02:46:50;14.60;99.90
16273;DHT22;8244;50.044;9.006;2023-05-21T02:51:52;14.60;99.90
16273;DHT22;8244;50.044;9.006;2023-05-21T02:56:55;14.50;99.90
16273;DHT22;8244;50.044;9.006;2023-05-21T03:01:57;14.60;99.90
16273;DHT22;8244;50.044;9.006;2023-05-21T03:06:58;14.60;99.90
16273;DHT22;8244;50.044;9.006;2023-05-21T03:12:03;14.50;99.90
16273;DHT22;8244;50.044;9.006;2023-05-21T03:17:04;14.50;99.90
16273;DHT22;8244;50.044;9.006;2023-05-21T03:22:07;14.60;99.90
16273;DHT22;8244;50.044;9.006;2023-05-21T03:27:10;14.60;99.90
16273;DHT22;8244;50.044;9.006;2023-05-21T03:32:12;14.50;99.90
16273;DHT22;8244;50.044;9.006;2023-05-21T03:37:13;14.50;99.90
16273;DHT22;8244;50.044;9.006;2023-05-21T03:42:16;14.50;99.90
16273;DHT22;8244;50.044;9.006;2023-05-21T03:47:18;14.40;99.90
16273;DHT22;8244;50.044;9.006;2023-05-21T03:52:19;14.40;99.90
16273;DHT22;8244;50.044;9.006;2023-05-21T03:57:22;14.40;99.90
16273;DHT22;8244;50.044;9.006;2023-05-21T04:02:24;14.40;99.90
16273;DHT22;8244;50.044;9.006;2023-05-21T04:07:26;14.40;99.90
16273;DHT22;8244;50.044;9.006;2023-05-21T04:12:30;14.40;99.90
16273;DHT22;8244;50.044;9.006;2023-05-21T04:17:32;14.40;99.90
16273;DHT22;8244;50.044;9.006;2023-05-21T04:22:34;14.40;99.90
16273;DHT22;8244;50.044;9.006;2023-05-21T04:27:38;14.50;99.90
16273;DHT22;8244;50.044;9.006;2023-05-21T04:32:39;14.50;99.90
16273;DHT22;8244;50.044;9.006;2023-05-21T04:37:41;14.60;99.90
16273;DHT22;8244;50.044;9.006;2023-05-21T04:42:46;14.60;99.90
16273;DHT22;8244;50.044;9.006;2023-05-21T04:47:50;14.70;99.90
16273;DHT22;8244;50.044;9.006;2023-05-21T04:52:51;14.80;99.90
16273;DHT22;8244;50.044;9.006;2023-05-21T04:57:55;14.90;99.90
16273;DHT22;8244;50.044;9.006;2023-05-21T05:02:57;15.00;99.90
16273;DHT22;8244;50.044;9.006;2023-05-21T05:07:58;15.20;99.90
16273;DHT22;8244;50.044;9.006;2023-05-21T05:13:02;15.40;99.90
16273;DHT22;8244;50.044;9.006;2023-05-21T05:18:03;15.70;99.90
16273;DHT22;8244;50.044;9.006;2023-05-21T05:23:05;16.20;99.90
16273;DHT22;8244;50.044;9.006;2023-05-21T05:28:08;16.80;99.90
16273;DHT22;8244;50.044;9.006;2023-05-21T05:33:10;17.20;99.90
16273;DHT22;8244;50.044;9.006;2023-05-21T05:38:12;17.40;99.90
16273;DHT22;8244;50.044;9.006;2023-05-21T05:43:15;17.50;99.90
16273;DHT22;8244;50.044;9.006;2023-05-21T05:48:16;17.60;99.90
16273;DHT22;8244;50.044;9.006;2023-05-21T05:53:18;17.80;99.90
16273;DHT22;8244;50.044;9.006;2023-05-21T05:58:21;18.10;99.90
16273;DHT22;8244;50.044;9.006;2023-05-21T06:03:22;18.30;99.90
16273;DHT22;8244;50.044;9.006;2023-05-21T06:08:24;18.60;99.90
16273;DHT22;8244;50.044;9.006;2023-05-21T06:13:27;19.00;99.90
16273;DHT22;8244;50.044;9.006;2023-05-21T06:18:29;19.40;99.90
16273;DHT22;8244;50.044;9.006;2023-05-21T06:23:30;19.80;99.90
16273;DHT22;8244;50.044;9.006;2023-05-21T06:28:33;20.20;99.90
16273;DHT22;8244;50.044;9.006;2023-05-21T06:33:35;20.60;99.90
16273;DHT22;8244;50.044;9.006;2023-05-21T06:38:37;21.00;99.90
16273;DHT22;8244;50.044;9.006;2023-05-21T06:43:40;21.60;99.90
16273;DHT22;8244;50.044;9.006;2023-05-21T06:48:43;22.40;99.90
16273;DHT22;8244;50.044;9.006;2023-05-21T06:53:45;23.40;99.90
16273;DHT22;8244;50.044;9.006;2023-05-21T06:58:48;24.40;99.90
16273;DHT22;8244;50.044;9.006;2023-05-21T07:03:50;25.30;99.90
16273;DHT22;8244;50.044;9.006;2023-05-21T07:08:52;25.80;99.90
16273;DHT22;8244;50.044;9.006;2023-05-21T07:13:57;25.90;99.90
16273;DHT22;8244;50.044;9.006;2023-05-21T07:18:59;26.10;99.90
16273;DHT22;8244;50.044;9.006;2023-05-21T07:24:01;26.20;99.90
16273;DHT22;8244;50.044;9.006;2023-05-21T07:29:04;26.70;98.90
16273;DHT22;8244;50.044;9.006;2023-05-21T07:34:05;27.20;99.60
16273;DHT22;8244;50.044;9.006;2023-05-21T07:39:07;27.90;97.10
16273;DHT22;8244;50.044;9.006;2023-05-21T07:44:10;28.60;95.60
16273;DHT22;8244;50.044;9.006;2023-05-21T07:49:12;29.20;92.70
16273;DHT22;8244;50.044;9.006;2023-05-21T07:54:17;29.50;89.70
16273;DHT22;8244;50.044;9.006;2023-05-21T07:59:20;29.50;89.20
16273;DHT22;8244;50.044;9.006;2023-05-21T08:04:22;29.60;87.30
16273;DHT22;8244;50.044;9.006;2023-05-21T08:09:23;29.30;88.00
16273;DHT22;8244;50.044;9.006;2023-05-21T08:14:26;29.50;83.90
16273;DHT22;8244;50.044;9.006;2023-05-21T08:19:28;29.30;84.60
16273;DHT22;8244;50.044;9.006;2023-05-21T08:24:30;29.50;84.60
16273;DHT22;8244;50.044;9.006;2023-05-21T08:29:33;29.70;81.40
16273;DHT22;8244;50.044;9.006;2023-05-21T08:34:35;29.70;80.40
16273;DHT22;8244;50.044;9.006;2023-05-21T08:39:37;30.00;79.00
16273;DHT22;8244;50.044;9.006;2023-05-21T08:44:42;30.20;80.70
16273;DHT22;8244;50.044;9.006;2023-05-21T08:49:49;30.30;76.20
16273;DHT22;8244;50.044;9.006;2023-05-21T08:54:52;29.80;78.30
16273;DHT22;8244;50.044;9.006;2023-05-21T08:59:55;29.50;75.30
16273;DHT22;8244;50.044;9.006;2023-05-21T09:04:57;29.00;77.50
16273;DHT22;8244;50.044;9.006;2023-05-21T09:10:05;28.90;81.40
16273;DHT22;8244;50.044;9.006;2023-05-21T09:15:10;28.80;78.60
16273;DHT22;8244;50.044;9.006;2023-05-21T09:20:14;29.20;83.00
16273;DHT22;8244;50.044;9.006;2023-05-21T09:25:19;29.60;81.20
16273;DHT22;8244;50.044;9.006;2023-05-21T09:30:23;29.50;80.30
16273;DHT22;8244;50.044;9.006;2023-05-21T09:35:25;29.70;82.50
16273;DHT22;8244;50.044;9.006;2023-05-21T09:40:27;29.80;77.20
16273;DHT22;8244;50.044;9.006;2023-05-21T09:45:30;29.80;77.00
16273;DHT22;8244;50.044;9.006;2023-05-21T09:50:35;29.60;79.00
16273;DHT22;8244;50.044;9.006;2023-05-21T09:55:36;30.00;79.90
16273;DHT22;8244;50.044;9.006;2023-05-21T10:00:39;30.90;75.70
16273;DHT22;8244;50.044;9.006;2023-05-21T10:05:41;31.80;76.60
16273;DHT22;8244;50.044;9.006;2023-05-21T10:10:44;32.80;76.20
16273;DHT22;8244;50.044;9.006;2023-05-21T10:15:58;33.50;66.40
16273;DHT22;8244;50.044;9.006;2023-05-21T10:21:00;33.20;71.10
16273;DHT22;8244;50.044;9.006;2023-05-21T10:26:03;34.10;66.50
16273;DHT22;8244;50.044;9.006;2023-05-21T10:31:07;33.90;65.30
16273;DHT22;8244;50.044;9.006;2023-05-21T10:36:09;34.10;67.70
16273;DHT22;8244;50.044;9.006;2023-05-21T10:41:11;34.00;62.80
16273;DHT22;8244;50.044;9.006;2023-05-21T10:46:48;33.90;64.60
16273;DHT22;8244;50.044;9.006;2023-05-21T10:51:58;34.40;62.00
16273;DHT22;8244;50.044;9.006;2023-05-21T10:57:08;34.80;60.90
16273;DHT22;8244;50.044;9.006;2023-05-21T11:02:17;34.90;66.40
16273;DHT22;8244;50.044;9.006;2023-05-21T11:07:22;35.10;59.30
16273;DHT22;8244;50.044;9.006;2023-05-21T11:13:10;34.70;58.40
16273;DHT22;8244;50.044;9.006;2023-05-21T11:18:13;34.80;58.60
16273;DHT22;8244;50.044;9.006;2023-05-21T11:23:15;33.80;60.40
16273;DHT22;8244;50.044;9.006;2023-05-21T11:28:31;33.70;62.00
16273;DHT22;8244;50.044;9.006;2023-05-21T11:33:33;33.60;60.90
16273;DHT22;8244;50.044;9.006;2023-05-21T11:38:36;33.20;61.80
16273;DHT22;8244;50.044;9.006;2023-05-21T11:43:42;33.60;59.50
16273;DHT22;8244;50.044;9.006;2023-05-21T11:48:44;33.80;61.90
16273;DHT22;8244;50.044;9.006;2023-05-21T11:53:47;33.80;62.30
16273;DHT22;8244;50.044;9.006;2023-05-21T11:58:53;33.60;63.30
16273;DHT22;8244;50.044;9.006;2023-05-21T12:03:55;33.30;64.40
16273;DHT22;8244;50.044;9.006;2023-05-21T12:08:56;33.10;64.40
16273;DHT22;8244;50.044;9.006;2023-05-21T12:13:59;33.30;61.60
16273;DHT22;8244;50.044;9.006;2023-05-21T12:19:01;33.00;62.50
16273;DHT22;8244;50.044;9.006;2023-05-21T12:24:04;33.60;63.00
16273;DHT22;8244;50.044;9.006;2023-05-21T12:35:45;33.00;60.20
16273;DHT22;8244;50.044;9.006;2023-05-21T12:40:49;32.50;63.50
16273;DHT22;8244;50.044;9.006;2023-05-21T12:45:52;32.70;64.70
16273;DHT22;8244;50.044;9.006;2023-05-21T12:50:57;32.80;65.40
16273;DHT22;8244;50.044;9.006;2023-05-21T12:56:07;32.80;64.40
16273;DHT22;8244;50.044;9.006;2023-05-21T13:01:09;32.50;62.20
16273;DHT22;8244;50.044;9.006;2023-05-21T13:06:12;32.40;64.60
16273;DHT22;8244;50.044;9.006;2023-05-21T13:11:14;32.50;66.00
16273;DHT22;8244;50.044;9.006;2023-05-21T13:16:16;32.80;64.70
16273;DHT22;8244;50.044;9.006;2023-05-21T13:21:22;33.00;64.40
16273;DHT22;8244;50.044;9.006;2023-05-21T13:26:24;33.40;64.40
16273;DHT22;8244;50.044;9.006;2023-05-21T13:31:26;33.90;62.20
16273;DHT22;8244;50.044;9.006;2023-05-21T13:36:30;34.20;60.80
16273;DHT22;8244;50.044;9.006;2023-05-21T13:41:31;34.60;60.40
16273;DHT22;8244;50.044;9.006;2023-05-21T13:46:33;34.90;62.70
16273;DHT22;8244;50.044;9.006;2023-05-21T13:51:40;34.90;59.50
16273;DHT22;8244;50.044;9.006;2023-05-21T13:56:41;34.80;62.70
16273;DHT22;8244;50.044;9.006;2023-05-21T14:01:43;34.70;58.40
16273;DHT22;8244;50.044;9.006;2023-05-21T14:06:46;34.60;57.40
16273;DHT22;8244;50.044;9.006;2023-05-21T14:11:48;34.70;59.20
16273;DHT22;8244;50.044;9.006;2023-05-21T14:16:50;34.70;58.50
16273;DHT22;8244;50.044;9.006;2023-05-21T14:21:53;34.30;59.00
16273;DHT22;8244;50.044;9.006;2023-05-21T14:26:55;33.70;59.10
16273;DHT22;8244;50.044;9.006;2023-05-21T14:31:57;33.30;61.50
16273;DHT22;8244;50.044;9.006;2023-05-21T14:37:00;33.20;62.20
16273;DHT22;8244;50.044;9.006;2023-05-21T14:42:03;33.00;58.00
16273;DHT22;8244;50.044;9.006;2023-05-21T14:47:05;32.80;58.60
16273;DHT22;8244;50.044;9.006;2023-05-21T14:52:08;32.50;60.90
16273;DHT22;8244;50.044;9.006;2023-05-21T14:57:09;32.20;61.80
16273;DHT22;8244;50.044;9.006;2023-05-21T15:02:11;32.00;60.80
16273;DHT22;8244;50.044;9.006;2023-05-21T15:07:14;31.60;61.40
16273;DHT22;8244;50.044;9.006;2023-05-21T15:12:16;31.30;61.20
16273;DHT22;8244;50.044;9.006;2023-05-21T15:17:18;30.90;63.60
16273;DHT22;8244;50.044;9.006;2023-05-21T15:22:23;30.70;63.30
16273;DHT22;8244;50.044;9.006;2023-05-21T15:27:24;30.60;63.40
16273;DHT22;8244;50.044;9.006;2023-05-21T15:32:26;30.70;63.70
16273;DHT22;8244;50.044;9.006;2023-05-21T15:37:29;30.80;63.00
16273;DHT22;8244;50.044;9.006;2023-05-21T15:42:32;30.90;62.60
16273;DHT22;8244;50.044;9.006;2023-05-21T15:47:34;30.80;62.80
16273;DHT22;8244;50.044;9.006;2023-05-21T15:52:37;30.90;65.30
16273;DHT22;8244;50.044;9.006;2023-05-21T15:57:38;30.90;64.90
16273;DHT22;8244;50.044;9.006;2023-05-21T16:02:40;30.80;63.90
16273;DHT22;8244;50.044;9.006;2023-05-21T16:07:43;30.70;65.50
16273;DHT22;8244;50.044;9.006;2023-05-21T16:12:45;30.70;63.70
16273;DHT22;8244;50.044;9.006;2023-05-21T16:17:47;30.60;66.00
16273;DHT22;8244;50.044;9.006;2023-05-21T16:22:52;30.50;64.30
16273;DHT22;8244;50.044;9.006;2023-05-21T16:27:54;30.40;69.50
16273;DHT22;8244;50.044;9.006;2023-05-21T16:32:55;30.30;68.60
16273;DHT22;8244;50.044;9.006;2023-05-21T16:37:58;30.20;68.90
16273;DHT22;8244;50.044;9.006;2023-05-21T16:43:00;30.10;72.50
16273;DHT22;8244;50.044;9.006;2023-05-21T16:48:02;30.00;72.30
16273;DHT22;8244;50.044;9.006;2023-05-21T16:53:06;29.90;73.30
16273;DHT22;8244;50.044;9.006;2023-05-21T16:58:09;29.80;74.80
16273;DHT22;8244;50.044;9.006;2023-05-21T17:03:13;29.60;77.20
16273;DHT22;8244;50.044;9.006;2023-05-21T17:08:16;29.50;73.70
16273;DHT22;8244;50.044;9.006;2023-05-21T17:13:18;29.40;73.00
16273;DHT22;8244;50.044;9.006;2023-05-21T17:18:20;29.30;74.90
16273;DHT22;8244;50.044;9.006;2023-05-21T17:23:23;29.20;72.30
16273;DHT22;8244;50.044;9.006;2023-05-21T17:28:25;29.00;72.60
16273;DHT22;8244;50.044;9.006;2023-05-21T17:33:32;28.90;73.10
16273;DHT22;8244;50.044;9.006;2023-05-21T17:38:41;28.80;73.20
16273;DHT22;8244;50.044;9.006;2023-05-21T17:43:43;28.70;72.80
16273;DHT22;8244;50.044;9.006;2023-05-21T17:48:45;28.60;76.50
16273;DHT22;8244;50.044;9.006;2023-05-21T17:53:48;28.60;77.70
16273;DHT22;8244;50.044;9.006;2023-05-21T17:58:50;28.40;77.80
16273;DHT22;8244;50.044;9.006;2023-05-21T18:03:51;28.30;77.30
16273;DHT22;8244;50.044;9.006;2023-05-21T18:08:55;28.20;81.20
16273;DHT22;8244;50.044;9.006;2023-05-21T18:13:57;28.00;80.60
16273;DHT22;8244;50.044;9.006;2023-05-21T18:18:58;27.90;79.30
16273;DHT22;8244;50.044;9.006;2023-05-21T18:24:08;27.70;79.30
16273;DHT22;8244;50.044;9.006;2023-05-21T18:29:10;27.60;78.80
16273;DHT22;8244;50.044;9.006;2023-05-21T18:34:12;27.40;78.90
16273;DHT22;8244;50.044;9.006;2023-05-21T18:39:17;27.20;78.90
16273;DHT22;8244;50.044;9.006;2023-05-21T18:44:23;27.00;80.00
16273;DHT22;8244;50.044;9.006;2023-05-21T18:49:25;26.80;80.90
16273;DHT22;8244;50.044;9.006;2023-05-21T18:54:34;26.50;81.20
16273;DHT22;8244;50.044;9.006;2023-05-21T18:59:36;26.30;83.30
16273;DHT22;8244;50.044;9.006;2023-05-21T19:04:40;26.10;85.70
16273;DHT22;8244;50.044;9.006;2023-05-21T19:09:43;25.80;86.20
16273;DHT22;8244;50.044;9.006;2023-05-21T19:14:45;25.50;86.80
16273;DHT22;8244;50.044;9.006;2023-05-21T19:19:46;25.20;87.30
16273;DHT22;8244;50.044;9.006;2023-05-21T19:24:54;24.90;88.10
16273;DHT22;8244;50.044;9.006;2023-05-21T19:29:56;24.60;90.20
16273;DHT22;8244;50.044;9.006;2023-05-21T19:34:58;24.40;90.90
16273;DHT22;8244;50.044;9.006;2023-05-21T19:40:01;24.20;91.40
16273;DHT22;8244;50.044;9.006;2023-05-21T19:45:06;23.90;91.70
16273;DHT22;8244;50.044;9.006;2023-05-21T19:50:09;23.70;92.30
16273;DHT22;8244;50.044;9.006;2023-05-21T19:55:12;23.40;92.60
16273;DHT22;8244;50.044;9.006;2023-05-21T20:00:19;23.20;93.20
16273;DHT22;8244;50.044;9.006;2023-05-21T20:05:21;23.00;93.80
16273;DHT22;8244;50.044;9.006;2023-05-21T20:10:24;22.70;94.60
16273;DHT22;8244;50.044;9.006;2023-05-21T20:15:29;22.50;95.30
16273;DHT22;8244;50.044;9.006;2023-05-21T20:20:31;22.30;96.20
16273;DHT22;8244;50.044;9.006;2023-05-21T20:25:35;22.10;97.10
16273;DHT22;8244;50.044;9.006;2023-05-21T20:30:50;21.90;97.80
16273;DHT22;8244;50.044;9.006;2023-05-21T20:35:52;21.70;99.00
16273;DHT22;8244;50.044;9.006;2023-05-21T20:40:56;21.50;99.90
16273;DHT22;8244;50.044;9.006;2023-05-21T20:45:58;21.30;99.90
16273;DHT22;8244;50.044;9.006;2023-05-21T20:51:01;21.10;99.90
16273;DHT22;8244;50.044;9.006;2023-05-21T20:56:05;21.00;99.90
16273;DHT22;8244;50.044;9.006;2023-05-21T21:01:08;20.80;99.90
16273;DHT22;8244;50.044;9.006;2023-05-21T21:06:10;20.60;99.90
16273;DHT22;8244;50.044;9.006;2023-05-21T21:11:13;20.50;99.90
16273;DHT22;8244;50.044;9.006;2023-05-21T21:16:16;20.30;99.90
16273;DHT22;8244;50.044;9.006;2023-05-21T21:21:18;20.20;99.90
16273;DHT22;8244;50.044;9.006;2023-05-21T21:26:21;20.10;99.90
16273;DHT22;8244;50.044;9.006;2023-05-21T21:31:23;19.90;99.90
16273;DHT22;8244;50.044;9.006;2023-05-21T21:36:26;19.70;99.90
16273;DHT22;8244;50.044;9.006;2023-05-21T21:41:30;19.60;99.90
16273;DHT22;8244;50.044;9.006;2023-05-21T21:46:32;19.50;99.90
16273;DHT22;8244;50.044;9.006;2023-05-21T21:51:33;19.40;99.90
16273;DHT22;8244;50.044;9.006;2023-05-21T21:56:37;19.30;99.90
16273;DHT22;8244;50.044;9.006;2023-05-21T22:01:39;19.20;99.90
16273;DHT22;8244;50.044;9.006;2023-05-21T22:06:41;19.00;99.90
16273;DHT22;8244;50.044;9.006;2023-05-21T22:11:46;18.80;99.90
16273;DHT22;8244;50.044;9.006;2023-05-21T22:16:47;18.70;99.90
16273;DHT22;8244;50.044;9.006;2023-05-21T22:21:52;18.60;99.90
16273;DHT22;8244;50.044;9.006;2023-05-21T22:26:55;18.40;99.90
16273;DHT22;8244;50.044;9.006;2023-05-21T22:31:57;18.20;99.90
16273;DHT22;8244;50.044;9.006;2023-05-21T22:36:59;18.00;99.90
16273;DHT22;8244;50.044;9.006;2023-05-21T22:42:03;17.90;99.90
16273;DHT22;8244;50.044;9.006;2023-05-21T22:47:05;17.80;99.90
16273;DHT22;8244;50.044;9.006;2023-05-21T22:52:08;17.60;99.90
16273;DHT22;8244;50.044;9.006;2023-05-21T22:57:11;17.50;99.90
16273;DHT22;8244;50.044;9.006;2023-05-21T23:02:14;17.30;99.90
16273;DHT22;8244;50.044;9.006;2023-05-21T23:07:16;17.20;99.90
16273;DHT22;8244;50.044;9.006;2023-05-21T23:12:19;17.10;99.90
16273;DHT22;8244;50.044;9.006;2023-05-21T23:17:21;17.00;99.90
16273;DHT22;8244;50.044;9.006;2023-05-21T23:22:22;16.90;99.90
16273;DHT22;8244;50.044;9.006;2023-05-21T23:27:25;16.80;99.90
16273;DHT22;8244;50.044;9.006;2023-05-21T23:32:27;16.70;99.90
16273;DHT22;8244;50.044;9.006;2023-05-21T23:37:29;16.60;99.90
16273;DHT22;8244;50.044;9.006;2023-05-21T23:42:32;16.60;99.90
16273;DHT22;8244;50.044;9.006;2023-05-21T23:47:33;16.50;99.90
16273;DHT22;8244;50.044;9.006;2023-05-21T23:52:35;16.40;99.90
16273;DHT22;8244;50.044;9.006;2023-05-21T23:57:38;16.30;99.90
